Time;durP1;ratioP1;P1;durP2;ratioP2;P2;SDS_P1;SDS_P2;PMS_P1;PMS_P2;Temp;Humidity;BMP_temperature;BMP_pressure;BME280_temperature;BME280_humidity;BME280_pressure;Samples;Min_cycle;Max_cycle;Signal;HPM_P1;HPM_P2
2023/12/02 00:01:51;;;;;;;54.50;29.63;;;;;;;-1.61;94.61;98643.38;4877091;29;20108;-89
2023/12/02 00:04:17;;;;;;;59.53;30.60;;;;;;;-1.59;94.99;98639.97;4909397;29;20044;-89
2023/12/02 00:06:42;;;;;;;59.95;31.30;;;;;;;-1.66;95.41;98646.00;4898535;29;20044;-88
2023/12/02 00:09:08;;;;;;;66.70;33.67;;;;;;;-1.85;95.43;98606.31;4898617;29;20038;-88
2023/12/02 00:11:34;;;;;;;67.93;33.47;;;;;;;-1.61;96.09;98634.00;4931212;29;20053;-89
2023/12/02 00:13:59;;;;;;;64.00;32.92;;;;;;;-1.48;96.23;98656.81;4936678;29;20050;-88
2023/12/02 00:16:24;;;;;;;64.60;32.30;;;;;;;-1.61;95.75;98628.91;4964387;28;20491;-88
2023/12/02 00:18:50;;;;;;;66.72;33.78;;;;;;;-1.51;95.07;98656.03;4999881;28;20447;-88
2023/12/02 00:21:15;;;;;;;55.58;31.10;;;;;;;-1.33;95.52;98670.22;5031553;28;20103;-88
2023/12/02 00:23:40;;;;;;;59.45;30.95;;;;;;;-1.32;95.46;98668.53;5015330;28;20083;-88
2023/12/02 00:26:07;;;;;;;120.65;54.45;;;;;;;-1.23;95.10;98660.72;5015374;28;20474;-88
2023/12/02 00:28:33;;;;;;;109.85;47.83;;;;;;;-1.14;94.87;98672.50;5014981;28;20064;-88
2023/12/02 00:30:58;;;;;;;124.32;51.60;;;;;;;-1.30;94.54;98637.00;5015060;28;20025;-88
2023/12/02 00:33:23;;;;;;;86.43;40.92;;;;;;;-1.16;94.88;98669.16;5013905;28;20333;-88
2023/12/02 00:35:49;;;;;;;64.60;34.17;;;;;;;-1.09;94.73;98668.19;5015027;28;20110;-88
2023/12/02 00:38:14;;;;;;;55.60;28.88;;;;;;;-1.08;94.09;98662.22;5031572;28;20033;-88
2023/12/02 00:40:39;;;;;;;55.45;30.33;;;;;;;-0.92;93.48;98685.81;5014759;28;20025;-88
2023/12/02 00:43:05;;;;;;;71.03;35.20;;;;;;;-1.02;92.92;98670.59;5014800;28;20029;-88
2023/12/02 00:45:30;;;;;;;53.83;29.10;;;;;;;-0.90;92.40;98676.41;5014698;28;20029;-87
2023/12/02 00:47:55;;;;;;;48.15;27.05;;;;;;;-1.03;92.36;98663.81;5031108;28;20494;-88
2023/12/02 00:50:21;;;;;;;54.63;31.23;;;;;;;-0.89;93.03;98681.47;5014615;28;20029;-88
2023/12/02 00:52:46;;;;;;;52.38;27.98;;;;;;;-0.96;93.74;98669.69;5031060;28;20087;-88
2023/12/02 00:55:11;;;;;;;51.28;28.35;;;;;;;-0.96;93.90;98661.19;5031135;28;20053;-88
2023/12/02 00:57:37;;;;;;;66.72;34.72;;;;;;;-0.98;93.48;98645.00;5014559;28;20067;-88
2023/12/02 01:00:03;;;;;;;72.00;36.20;;;;;;;-0.82;93.38;98667.72;5034141;28;20095;-88
2023/12/02 01:02:29;;;;;;;66.55;36.88;;;;;;;-0.85;93.70;98666.94;5034092;28;20037;-88
2023/12/02 01:04:55;;;;;;;67.80;37.17;;;;;;;-0.93;93.79;98659.38;5050856;28;20029;-88
2023/12/02 01:07:20;;;;;;;76.70;40.38;;;;;;;-0.97;94.18;98641.56;5051754;28;20103;-88
2023/12/02 01:09:45;;;;;;;101.13;52.45;;;;;;;-1.12;94.32;98646.06;5050675;28;20047;-88
2023/12/02 01:12:11;;;;;;;101.70;53.35;;;;;;;-1.09;95.06;98657.97;5050967;28;20024;-88
2023/12/02 01:14:36;;;;;;;98.68;50.47;;;;;;;-1.12;94.83;98640.97;5050526;28;20037;-88
2023/12/02 01:17:02;;;;;;;108.13;55.25;;;;;;;-1.08;95.50;98660.50;5034108;28;20536;-87
2023/12/02 01:19:27;;;;;;;106.60;56.13;;;;;;;-1.13;95.77;98658.88;5033778;28;20121;-88
2023/12/02 01:21:52;;;;;;;114.50;60.85;;;;;;;-1.22;96.17;98641.13;5033931;28;20053;-88
2023/12/02 01:24:18;;;;;;;120.07;62.50;;;;;;;-1.36;96.75;98639.63;5034098;28;20025;-88
2023/12/02 01:26:43;;;;;;;116.40;63.45;;;;;;;-1.27;97.36;98653.97;5033982;28;20116;-88
2023/12/02 01:29:09;;;;;;;112.68;57.90;;;;;;;-1.19;97.03;98664.06;5033910;28;20025;-88
2023/12/02 01:31:34;;;;;;;104.03;54.67;;;;;;;-1.44;96.40;98618.44;5029018;28;20041;-88
2023/12/02 01:33:59;;;;;;;117.20;57.15;;;;;;;-1.12;96.37;98673.34;5029305;28;20099;-88
2023/12/02 01:36:25;;;;;;;120.22;63.92;;;;;;;-1.20;96.03;98665.78;5029273;28;20617;-88
2023/12/02 01:38:50;;;;;;;143.52;73.70;;;;;;;-1.19;96.73;98669.19;5028837;28;20048;-88
2023/12/02 01:41:15;;;;;;;121.45;60.03;;;;;;;-1.09;96.24;98678.41;5012492;28;20123;-88
2023/12/02 01:43:41;;;;;;;117.70;59.72;;;;;;;-1.06;96.18;98678.34;5012293;28;20037;-88
2023/12/02 01:46:06;;;;;;;110.05;57.97;;;;;;;-1.05;96.49;98678.34;5012614;28;20532;-88
2023/12/02 01:48:34;;;;;;;121.32;61.50;;;;;;;-1.08;96.33;98670.72;5012208;28;20049;-88
2023/12/02 01:51:00;;;;;;;111.43;57.42;;;;;;;-1.17;96.02;98652.13;5012450;28;20033;-88
2023/12/02 01:53:26;;;;;;;114.97;59.00;;;;;;;-1.01;95.82;98668.91;5028768;28;20037;-88
2023/12/02 01:55:52;;;;;;;122.57;61.45;;;;;;;-1.26;95.83;98630.13;5012327;28;20029;-88
2023/12/02 01:58:19;;;;;;;128.05;61.80;;;;;;;-1.29;96.13;98627.59;5012184;28;20045;-88
2023/12/02 02:00:44;;;;;;;127.55;64.40;;;;;;;-1.16;96.37;98652.09;5012378;28;20052;-88
2023/12/02 02:03:09;;;;;;;120.35;58.70;;;;;;;-0.97;96.53;98667.13;5014105;28;20046;-88
2023/12/02 02:05:35;;;;;;;111.13;59.40;;;;;;;-1.06;96.96;98655.34;5008992;28;20046;-88
2023/12/02 02:08:01;;;;;;;113.80;58.25;;;;;;;-1.11;96.81;98659.69;5009263;28;20514;-88
2023/12/02 02:10:26;;;;;;;115.20;58.70;;;;;;;-1.15;97.54;98656.34;5028392;28;20087;-88
2023/12/02 02:12:52;;;;;;;115.10;57.10;;;;;;;-1.10;98.00;98662.22;5049965;28;20448;-88
2023/12/02 02:15:17;;;;;;;113.63;56.47;;;;;;;-0.99;98.16;98679.09;5051192;28;20023;-88
2023/12/02 02:17:43;;;;;;;109.78;55.45;;;;;;;-1.17;97.84;98644.47;5049899;28;20029;-88
2023/12/02 02:20:08;;;;;;;109.13;55.88;;;;;;;-1.06;98.21;98665.56;5033869;28;20401;-88
2023/12/02 02:22:34;;;;;;;102.35;53.70;;;;;;;-1.15;98.12;98664.00;5033481;28;20036;-88
2023/12/02 02:25:00;;;;;;;112.20;53.03;;;;;;;-1.27;98.28;98664.19;5033934;28;20143;-88
2023/12/02 02:27:25;;;;;;;108.00;55.40;;;;;;;-1.30;98.57;98659.97;5050216;28;20029;-88
2023/12/02 02:29:50;;;;;;;102.32;53.60;;;;;;;-1.22;98.70;98675.19;5049867;28;20064;-88
2023/12/02 02:32:16;;;;;;;105.80;54.47;;;;;;;-1.59;98.49;98611.88;5050030;28;20029;-88
2023/12/02 02:34:42;;;;;;;112.57;55.72;;;;;;;-1.68;98.82;98593.31;5049722;28;20086;-88
2023/12/02 02:37:08;;;;;;;102.57;54.63;;;;;;;-1.23;99.01;98663.25;5033100;28;20496;-88
2023/12/02 02:39:33;;;;;;;112.65;55.22;;;;;;;-1.45;99.03;98621.88;5049725;28;20124;-88
2023/12/02 02:42:05;;;;;;;102.20;53.38;;;;;;;-1.45;99.40;98619.31;5033381;28;20029;-88
2023/12/02 02:44:31;;;;;;;109.28;53.85;;;;;;;-1.53;99.15;98608.38;5033188;28;20431;-88
2023/12/02 02:46:57;;;;;;;107.68;54.97;;;;;;;-1.30;99.25;98643.81;5033220;28;20032;-88
2023/12/02 02:49:22;;;;;;;112.05;55.38;;;;;;;-1.30;99.46;98643.81;5049233;28;20565;-88
2023/12/02 02:51:47;;;;;;;112.35;55.97;;;;;;;-1.39;99.30;98616.69;5051064;28;20469;-88
2023/12/02 02:54:13;;;;;;;104.38;54.78;;;;;;;-1.26;99.42;98646.28;5050316;28;20033;-87
2023/12/02 02:56:38;;;;;;;108.53;57.00;;;;;;;-1.19;99.59;98654.69;5036277;28;20036;-88
2023/12/02 02:59:03;;;;;;;133.82;64.47;;;;;;;-1.25;99.56;98631.81;5036689;28;20045;-87
2023/12/02 03:01:29;;;;;;;123.20;62.55;;;;;;;-1.16;99.55;98641.88;5053706;28;20083;-88
2023/12/02 03:03:54;;;;;;;118.90;58.88;;;;;;;-1.33;99.39;98608.09;5011975;28;20041;-88
2023/12/02 03:06:19;;;;;;;108.22;58.08;;;;;;;-1.12;99.16;98647.78;4995898;28;20081;-88
2023/12/02 03:08:45;;;;;;;105.38;54.88;;;;;;;-1.29;99.04;98627.59;5011957;28;20046;-87
2023/12/02 03:11:10;;;;;;;102.88;53.53;;;;;;;-1.22;99.89;98641.13;4995506;28;20044;-87
2023/12/02 03:13:35;;;;;;;105.28;54.75;;;;;;;-1.18;99.90;98641.06;5011693;28;20128;-87
2023/12/02 03:16:01;;;;;;;98.88;51.90;;;;;;;-1.04;99.76;98649.34;4995660;28;20104;-88
2023/12/02 03:18:26;;;;;;;105.40;54.25;;;;;;;-1.02;99.31;98645.03;4995469;28;20069;-88
2023/12/02 03:20:51;;;;;;;103.40;53.88;;;;;;;-1.14;99.18;98619.69;4995362;28;20041;-88
2023/12/02 03:23:16;;;;;;;100.50;51.80;;;;;;;-1.24;99.33;98612.22;5011720;28;20041;-87
2023/12/02 03:25:42;;;;;;;109.85;54.95;;;;;;;-1.07;98.63;98623.84;4995329;28;20038;-87
2023/12/02 03:28:08;;;;;;;108.53;53.50;;;;;;;-1.13;98.73;98623.94;4995471;28;20530;-87
2023/12/02 03:30:33;;;;;;;109.93;55.15;;;;;;;-1.45;98.46;98567.41;5011718;28;20037;-88
2023/12/02 03:32:59;;;;;;;101.25;50.78;;;;;;;-1.26;98.86;98599.47;4995001;28;20033;-88
2023/12/02 03:35:24;;;;;;;106.65;53.22;;;;;;;-1.27;98.80;98613.09;5024026;28;20444;-87
2023/12/02 03:37:49;;;;;;;107.00;52.75;;;;;;;-1.38;98.88;98600.50;5053743;28;20032;-87
2023/12/02 03:40:15;;;;;;;104.10;52.65;;;;;;;-1.76;99.15;98563.63;5036008;28;20397;-87
2023/12/02 03:42:40;;;;;;;99.70;50.70;;;;;;;-1.45;99.46;98614.22;5053623;28;20031;-87
2023/12/02 03:45:06;;;;;;;102.68;53.17;;;;;;;-1.49;100.00;98602.34;5035638;28;20047;-87
2023/12/02 03:47:32;;;;;;;103.00;52.63;;;;;;;-1.51;100.00;98612.59;5035560;28;20094;-87
2023/12/02 03:49:58;;;;;;;102.15;52.10;;;;;;;-1.66;100.00;98605.16;5035730;28;20039;-87
2023/12/02 03:52:23;;;;;;;99.53;51.97;;;;;;;-1.61;100.00;98616.16;5035889;28;20395;-87
2023/12/02 03:54:49;;;;;;;103.93;54.08;;;;;;;-1.71;100.00;98613.75;5035584;28;20415;-87
2023/12/02 03:57:15;;;;;;;92.95;50.50;;;;;;;-1.94;100.00;98585.97;5035556;28;20394;-87
2023/12/02 03:59:40;;;;;;;104.53;52.75;;;;;;;-1.76;100.00;98607.00;5035298;28;20048;-87
2023/12/02 04:02:05;;;;;;;98.32;51.70;;;;;;;-1.72;100.00;98604.41;5035468;28;20028;-87
2023/12/02 04:04:31;;;;;;;99.72;50.08;;;;;;;-1.69;100.00;98599.25;5035711;28;20466;-87
2023/12/02 04:06:56;;;;;;;98.13;51.70;;;;;;;-1.70;100.00;98598.41;5035361;28;20465;-88
2023/12/02 04:09:21;;;;;;;100.65;51.25;;;;;;;-1.73;100.00;98597.59;5035224;28;20580;-87
2023/12/02 04:11:47;;;;;;;104.82;54.40;;;;;;;-1.63;100.00;98604.28;5052855;28;20066;-87
2023/12/02 04:14:12;;;;;;;108.78;53.40;;;;;;;-1.62;100.00;98616.19;5053207;28;20060;-87
2023/12/02 04:16:42;;;;;;;115.97;54.70;;;;;;;-1.64;100.00;98618.75;5051523;28;20044;-87
2023/12/02 04:19:10;;;;;;;128.35;60.10;;;;;;;-1.61;100.00;98626.34;5035032;28;20063;-87
2023/12/02 04:21:36;;;;;;;118.88;58.38;;;;;;;-1.57;100.00;98624.59;5053216;28;20139;-87
2023/12/02 04:24:04;;;;;;;104.60;54.60;;;;;;;-1.63;100.00;98628.09;5034932;28;20527;-87
2023/12/02 04:26:30;;;;;;;106.30;53.22;;;;;;;-1.65;100.00;98624.72;5035086;28;20017;-87
2023/12/02 04:28:55;;;;;;;105.85;53.85;;;;;;;-1.59;100.00;98621.25;5034686;28;20041;-87
2023/12/02 04:31:20;;;;;;;109.35;55.35;;;;;;;-1.64;100.00;98617.91;5034862;28;20028;-87
2023/12/02 04:33:45;;;;;;;109.20;55.28;;;;;;;-1.71;100.00;98606.09;5052596;28;20454;-86
2023/12/02 04:36:11;;;;;;;106.00;54.05;;;;;;;-1.65;100.00;98617.06;5035004;28;20385;-87
2023/12/02 04:38:37;;;;;;;102.50;53.38;;;;;;;-1.63;100.00;98602.56;5034963;28;20393;-87
2023/12/02 04:41:03;;;;;;;104.20;53.80;;;;;;;-1.57;100.00;98607.56;5034594;28;20106;-87
2023/12/02 04:43:28;;;;;;;105.88;54.45;;;;;;;-1.60;100.00;98612.75;5034683;28;20477;-87
2023/12/02 04:45:53;;;;;;;102.45;55.15;;;;;;;-1.65;100.00;98601.72;5034388;28;20477;-88
2023/12/02 04:48:19;;;;;;;106.07;55.05;;;;;;;-1.59;100.00;98611.88;5034851;28;20039;-87
2023/12/02 04:50:44;;;;;;;110.07;54.42;;;;;;;-1.63;100.00;98605.13;5034491;28;20135;-87
2023/12/02 04:53:09;;;;;;;110.03;56.25;;;;;;;-1.69;100.00;98594.97;5034633;28;20115;-87
2023/12/02 04:55:35;;;;;;;97.55;52.20;;;;;;;-1.73;100.00;98574.63;5051144;28;20029;-87
2023/12/02 04:58:01;;;;;;;100.13;53.15;;;;;;;-1.57;100.00;98599.91;5034188;28;20064;-87
2023/12/02 05:00:27;;;;;;;110.10;56.70;;;;;;;-1.73;100.00;98557.59;5034434;28;20032;-87
2023/12/02 05:02:53;;;;;;;108.95;55.90;;;;;;;-1.62;100.00;98580.44;5052404;28;20025;-87
2023/12/02 05:05:19;;;;;;;108.45;54.05;;;;;;;-1.71;100.00;98565.25;5034359;28;20031;-87
2023/12/02 05:07:44;;;;;;;110.25;57.00;;;;;;;-1.72;100.00;98561.03;5034453;28;20385;-87
2023/12/02 05:10:10;;;;;;;107.85;55.53;;;;;;;-1.64;100.00;98572.81;5051161;28;20028;-88
2023/12/02 05:12:36;;;;;;;101.45;54.75;;;;;;;-2.13;100.00;98503.75;5052963;28;20033;-87
2023/12/02 05:15:02;;;;;;;103.70;53.90;;;;;;;-1.70;100.00;98565.22;5052876;28;20029;-88
2023/12/02 05:17:28;;;;;;;110.55;56.03;;;;;;;-1.67;100.00;98557.53;5034546;28;20021;-88
2023/12/02 05:19:53;;;;;;;102.65;55.05;;;;;;;-1.85;100.00;98539.94;5034698;28;20381;-88
2023/12/02 05:22:19;;;;;;;115.95;55.70;;;;;;;-1.69;100.00;98568.63;5035147;28;20036;-88
2023/12/02 05:24:45;;;;;;;104.28;54.90;;;;;;;-1.56;100.00;98588.00;5034980;28;20059;-88
2023/12/02 05:27:10;;;;;;;113.35;55.00;;;;;;;-1.60;100.00;98588.91;5051255;28;20389;-87
2023/12/02 05:29:36;;;;;;;127.68;61.00;;;;;;;-1.66;100.00;98589.00;5043377;28;20113;-88
2023/12/02 05:32:01;;;;;;;127.15;66.50;;;;;;;-1.75;100.00;98595.09;5068649;28;20040;-87
2023/12/02 05:34:26;;;;;;;117.45;59.17;;;;;;;-1.72;100.00;98589.09;5043384;28;20025;-88
2023/12/02 05:36:52;;;;;;;138.15;64.72;;;;;;;-1.60;100.00;98605.09;5046447;28;20032;-88
2023/12/02 05:39:17;;;;;;;131.50;63.83;;;;;;;-1.72;100.00;98561.88;5052659;28;20021;-87
2023/12/02 05:41:42;;;;;;;136.43;64.30;;;;;;;-1.77;100.00;98567.03;5055319;28;20089;-87
2023/12/02 05:44:09;;;;;;;131.10;65.30;;;;;;;-1.94;100.00;98561.31;5039159;28;20045;-87
2023/12/02 05:46:34;;;;;;;132.98;65.78;;;;;;;-1.96;100.00;98546.91;5039012;28;20087;-87
2023/12/02 05:49:00;;;;;;;130.70;64.43;;;;;;;-1.82;100.00;98566.25;5055406;28;20034;-88
2023/12/02 05:51:25;;;;;;;140.35;66.65;;;;;;;-1.71;100.00;98578.03;5022240;28;20033;-88
2023/12/02 05:53:51;;;;;;;140.35;69.03;;;;;;;-1.66;100.00;98594.94;5012784;28;20047;-87
2023/12/02 05:56:19;;;;;;;142.02;68.45;;;;;;;-1.75;100.00;98577.22;5012822;28;20029;-88
2023/12/02 05:58:44;;;;;;;135.55;68.47;;;;;;;-1.75;100.00;98582.31;5012227;28;20505;-88
2023/12/02 06:01:09;;;;;;;138.00;70.18;;;;;;;-1.66;100.00;98591.56;5012606;28;20060;-88
2023/12/02 06:03:35;;;;;;;141.25;71.15;;;;;;;-1.73;100.00;98582.28;5012396;28;20029;-88
2023/12/02 06:06:00;;;;;;;147.85;73.85;;;;;;;-1.70;100.00;98593.31;5012280;28;20045;-88
2023/12/02 06:08:25;;;;;;;144.27;73.38;;;;;;;-1.77;100.00;98592.56;5029146;28;20037;-88
2023/12/02 06:10:51;;;;;;;159.93;77.30;;;;;;;-1.63;100.00;98606.84;5028162;28;20033;-88
2023/12/02 06:13:16;;;;;;;165.07;81.20;;;;;;;-1.69;100.00;98592.44;5033123;28;20021;-88
2023/12/02 06:15:41;;;;;;;162.85;79.40;;;;;;;-1.55;100.00;98618.63;5049882;28;20087;-88
2023/12/02 06:18:07;;;;;;;166.55;77.78;;;;;;;-1.55;100.00;98621.19;5049911;28;20032;-88
2023/12/02 06:20:32;;;;;;;178.27;85.78;;;;;;;-1.63;100.00;98594.06;5033657;28;20170;-89
2023/12/02 06:22:58;;;;;;;153.07;75.53;;;;;;;-1.73;100.00;98575.47;5033380;28;20496;-88
2023/12/02 06:25:23;;;;;;;148.63;73.53;;;;;;;-1.74;100.00;98588.25;5008801;28;20046;-89
2023/12/02 06:27:48;;;;;;;147.35;76.00;;;;;;;-1.80;100.00;98600.25;5008930;28;20037;-89
2023/12/02 06:30:18;;;;;;;150.07;71.90;;;;;;;-1.77;100.00;98618.09;4993722;28;20041;-89
2023/12/02 06:32:44;;;;;;;161.43;76.93;;;;;;;-1.88;100.00;98594.41;4996411;28;20121;-88
2023/12/02 06:35:10;;;;;;;149.25;72.45;;;;;;;-1.77;100.00;98601.91;5012496;28;20454;-88
2023/12/02 06:37:35;;;;;;;139.75;71.45;;;;;;;-1.77;100.00;98596.78;5012805;28;20030;-89
2023/12/02 06:40:01;;;;;;;142.65;71.47;;;;;;;-1.62;100.00;98624.69;5012558;28;20180;-88
2023/12/02 06:42:26;;;;;;;139.43;73.32;;;;;;;-1.62;100.00;98624.69;5012764;28;20026;-89
2023/12/02 06:44:52;;;;;;;150.63;75.55;;;;;;;-1.71;100.00;98603.53;4996068;28;20479;-88
2023/12/02 06:47:17;;;;;;;196.35;93.13;;;;;;;-1.75;100.00;98602.75;4996112;28;20406;-88
2023/12/02 06:49:42;;;;;;;236.52;100.20;;;;;;;-1.72;100.00;98615.47;4996485;28;20026;-89
2023/12/02 06:52:08;;;;;;;208.48;87.18;;;;;;;-1.75;100.00;98607.84;4995848;28;20034;-88
2023/12/02 06:54:36;;;;;;;174.40;87.28;;;;;;;-1.86;100.00;98590.13;4996105;28;20021;-89
2023/12/02 06:57:04;;;;;;;205.00;88.60;;;;;;;-1.57;100.00;98633.09;5027059;28;20503;-89
2023/12/02 06:59:30;;;;;;;257.38;97.10;;;;;;;-1.62;100.00;98627.22;5054434;28;20130;-88
2023/12/02 07:01:55;;;;;;;307.25;103.50;;;;;;;-1.66;100.00;98623.03;5054385;28;20087;-88
2023/12/02 07:04:21;;;;;;;205.20;80.60;;;;;;;-1.65;100.00;98623.88;5036682;28;20025;-89
2023/12/02 07:06:46;;;;;;;202.63;79.90;;;;;;;-1.70;100.00;98625.66;5036487;28;20025;-89
2023/12/02 07:09:11;;;;;;;240.00;89.65;;;;;;;-1.60;100.00;98639.97;5035947;28;20039;-88
2023/12/02 07:11:37;;;;;;;247.63;87.05;;;;;;;-1.64;100.00;98651.13;5052948;28;20029;-89
2023/12/02 07:14:05;;;;;;;166.45;72.30;;;;;;;-1.74;100.00;98622.28;5011614;28;20042;-89
2023/12/02 07:16:30;;;;;;;238.45;91.20;;;;;;;-1.64;100.00;98639.19;5011943;28;20041;-89
2023/12/02 07:18:56;;;;;;;231.52;87.53;;;;;;;-1.56;100.00;98641.59;5011636;28;20042;-89
2023/12/02 07:21:22;;;;;;;216.00;80.82;;;;;;;-1.75;100.00;98615.50;5011672;28;20057;-89
2023/12/02 07:23:47;;;;;;;202.30;83.50;;;;;;;-1.57;100.00;98645.03;5011788;28;20044;-89
2023/12/02 07:26:13;;;;;;;241.75;90.18;;;;;;;-1.53;100.00;98641.56;5011937;28;20049;-89
2023/12/02 07:28:38;;;;;;;201.63;86.20;;;;;;;-1.46;100.00;98658.50;5011724;28;20379;-89
2023/12/02 07:31:03;;;;;;;176.35;82.00;;;;;;;-1.46;100.00;98650.00;5011242;28;20066;-88
2023/12/02 07:33:30;;;;;;;226.05;88.75;;;;;;;-1.44;100.00;98656.75;5011864;28;20046;-89
2023/12/02 07:35:55;;;;;;;226.02;93.38;;;;;;;-1.42;100.00;98652.50;5011459;28;20538;-89
2023/12/02 07:38:20;;;;;;;278.63;98.90;;;;;;;-1.38;100.00;98658.41;5011708;28;20084;-89
2023/12/02 07:40:46;;;;;;;220.27;99.88;;;;;;;-1.27;100.00;98671.84;5011408;28;20038;-89
2023/12/02 07:43:11;;;;;;;218.55;92.43;;;;;;;-1.30;100.00;98665.09;5011135;28;20111;-89
2023/12/02 07:45:37;;;;;;;167.88;81.75;;;;;;;-1.31;100.00;98665.97;5030153;28;20401;-89
2023/12/02 07:48:03;;;;;;;177.65;80.45;;;;;;;-1.32;100.00;98671.06;5035500;28;20032;-89
2023/12/02 07:50:29;;;;;;;248.95;109.50;;;;;;;-1.46;100.00;98638.06;5052333;28;20033;-89
2023/12/02 07:52:54;;;;;;;173.32;84.50;;;;;;;-1.32;100.00;98679.56;5030684;28;20048;-89
2023/12/02 07:55:19;;;;;;;203.95;86.85;;;;;;;-1.31;100.00;98671.06;5030877;28;20414;-89
2023/12/02 07:57:45;;;;;;;222.55;98.68;;;;;;;-1.29;100.00;98674.44;5030854;28;20275;-89
2023/12/02 08:00:11;;;;;;;153.93;80.60;;;;;;;-1.34;100.00;98670.25;5010908;28;20046;-89
2023/12/02 08:02:36;;;;;;;184.88;95.72;;;;;;;-1.22;100.00;98692.22;4994899;28;20438;-90
2023/12/02 08:05:02;;;;;;;247.88;99.20;;;;;;;-1.32;100.00;98668.53;4994504;28;20133;-89
2023/12/02 08:07:27;;;;;;;227.98;93.50;;;;;;;-1.31;100.00;98673.63;4994428;28;20052;-89
2023/12/02 08:09:54;;;;;;;237.07;90.70;;;;;;;-1.34;100.00;98678.78;4994415;28;20034;-89
2023/12/02 08:12:20;;;;;;;204.18;86.78;;;;;;;-1.25;100.00;98688.00;4994446;28;20034;-89
2023/12/02 08:14:46;;;;;;;180.68;84.50;;;;;;;-1.22;100.00;98680.31;4994476;28;20034;-89
2023/12/02 08:17:11;;;;;;;189.10;82.25;;;;;;;-1.27;100.00;98688.00;4994843;28;20125;-89
2023/12/02 08:19:36;;;;;;;183.82;86.35;;;;;;;-1.28;100.00;98680.38;4994885;28;20049;-89
2023/12/02 08:22:02;;;;;;;158.95;86.43;;;;;;;-1.23;100.00;98668.38;4994820;28;20098;-88
2023/12/02 08:24:32;;;;;;;170.70;83.30;;;;;;;-1.20;100.00;98676.00;4994895;28;20048;-89
2023/12/02 08:26:58;;;;;;;199.00;94.65;;;;;;;-1.32;100.00;98663.41;5011464;28;20103;-90
2023/12/02 08:29:23;;;;;;;209.27;90.68;;;;;;;-1.30;100.00;98664.25;4995103;28;20459;-89
2023/12/02 08:31:49;;;;;;;264.13;99.93;;;;;;;-1.18;100.00;98679.41;5026389;28;20072;-89
2023/12/02 08:34:15;;;;;;;215.48;92.43;;;;;;;-1.18;100.00;98675.97;5034851;28;20035;-89
2023/12/02 08:36:41;;;;;;;185.95;88.18;;;;;;;-1.19;100.00;98666.63;5034806;28;20059;-89
2023/12/02 08:39:07;;;;;;;181.65;90.60;;;;;;;-1.13;100.00;98680.16;5034303;28;20035;-89
2023/12/02 08:41:32;;;;;;;168.90;82.75;;;;;;;-1.15;100.00;98684.44;5051182;28;20029;-89
2023/12/02 08:43:57;;;;;;;199.55;90.50;;;;;;;-1.10;100.00;98699.69;5034796;28;20060;-88
2023/12/02 08:46:25;;;;;;;180.77;84.13;;;;;;;-1.06;100.00;98698.78;5051303;28;20025;-89
2023/12/02 08:48:50;;;;;;;228.13;97.38;;;;;;;-1.28;100.00;98654.84;5034691;28;20507;-89
2023/12/02 08:51:16;;;;;;;195.95;96.40;;;;;;;-1.03;100.00;98694.47;5050765;28;20033;-90
2023/12/02 08:53:41;;;;;;;228.30;93.00;;;;;;;-1.01;100.00;98694.47;5029185;28;20273;-89
2023/12/02 08:56:08;;;;;;;221.05;96.18;;;;;;;-1.16;100.00;98669.97;5029432;28;20038;-89
2023/12/02 08:58:34;;;;;;;191.35;89.38;;;;;;;-1.47;100.00;98630.44;5024529;28;20565;-89
2023/12/02 09:00:59;;;;;;;251.68;110.78;;;;;;;-1.01;100.00;98684.25;4977518;28;20128;-90
2023/12/02 09:03:25;;;;;;;212.15;101.88;;;;;;;-0.97;100.00;98696.09;4970771;28;20042;-89
2023/12/02 09:05:55;;;;;;;230.48;96.63;;;;;;;-0.99;100.00;98702.94;4954985;28;20034;-90
2023/12/02 09:08:21;;;;;;;220.32;95.68;;;;;;;-1.01;100.00;98697.88;4970716;28;20043;-89
2023/12/02 09:10:46;;;;;;;220.00;98.72;;;;;;;-0.91;100.00;98702.84;4954829;28;20101;-88
2023/12/02 09:13:40;;;;;;;199.65;93.32;;;;;;;-0.99;100.00;98682.50;4954293;28;20047;-88
2023/12/02 09:16:29;;;;;;;189.13;88.40;;;;;;;-0.89;100.00;98701.09;4932161;29;20044;-90
2023/12/02 09:18:55;;;;;;;225.52;97.63;;;;;;;-0.97;100.00;98685.03;4872552;29;20041;-87
2023/12/02 09:21:21;;;;;;;183.18;86.15;;;;;;;-1.30;100.00;98636.16;4879773;29;20048;-87
2023/12/02 09:23:48;;;;;;;210.88;93.68;;;;;;;-1.20;100.00;98664.94;4896370;29;20036;-87
2023/12/02 09:26:29;;;;;;;237.38;100.47;;;;;;;-1.25;100.00;98657.34;4913226;29;20040;-87
2023/12/02 09:28:55;;;;;;;215.33;108.70;;;;;;;-1.14;100.00;98667.38;4913090;29;20135;-88
2023/12/02 09:31:22;;;;;;;185.13;86.32;;;;;;;-0.87;100.00;98700.19;4912707;29;20694;-88
2023/12/02 09:33:54;;;;;;;182.75;86.53;;;;;;;-0.84;100.00;98707.00;4902414;29;20074;-89
2023/12/02 09:36:32;;;;;;;200.10;98.97;;;;;;;-0.80;100.00;98696.69;4931646;29;20607;-87
2023/12/02 09:39:18;;;;;;;164.30;79.88;;;;;;;-0.68;100.00;98716.06;4932183;29;20405;-88
2023/12/02 09:41:50;;;;;;;159.77;81.40;;;;;;;-0.67;100.00;98706.72;4894006;29;20036;-87
2023/12/02 09:44:24;;;;;;;162.15;81.85;;;;;;;-0.67;100.00;98696.50;4878298;29;20047;-88
2023/12/02 09:50:14;;;;;;;177.65;81.43;;;;;;;-0.53;100.00;98709.88;5585952;23;20405;-93
2023/12/02 09:52:52;;;;;;;166.23;81.90;;;;;;;-0.55;100.00;98704.81;5019603;28;20033;-93
2023/12/02 09:55:26;;;;;;;175.43;88.72;;;;;;;-0.56;100.00;98692.84;5068403;28;20037;-93
2023/12/02 09:58:23;;;;;;;200.35;91.82;;;;;;;-1.11;100.00;98640.09;5068774;28;20029;-93
2023/12/02 10:01:21;;;;;;;157.90;77.97;;;;;;;-1.19;100.00;98664.91;5068087;28;20033;-93
2023/12/02 10:04:11;;;;;;;244.40;98.88;;;;;;;-1.46;100.00;98661.06;5068334;28;20035;-93
2023/12/02 10:06:42;;;;;;;165.52;79.65;;;;;;;-1.56;100.00;98656.94;5071920;28;20388;-93
2023/12/02 10:09:27;;;;;;;216.43;98.80;;;;;;;-1.57;99.39;98668.84;5071287;28;20063;-89
2023/12/02 10:12:24;;;;;;;209.80;94.00;;;;;;;-1.38;99.26;98692.44;5071804;28;20033;-93
2023/12/02 10:15:01;;;;;;;183.90;83.50;;;;;;;-1.57;99.75;98670.56;5071693;28;20028;-92
2023/12/02 10:17:51;;;;;;;197.40;98.03;;;;;;;-1.50;100.00;98664.53;5054763;28;20032;-90
2023/12/02 10:20:30;;;;;;;137.00;71.75;;;;;;;-1.35;100.00;98668.56;5013530;28;20041;-93
2023/12/02 10:23:12;;;;;;;147.35;74.38;;;;;;;-1.27;100.00;98664.19;4994916;28;20038;-93
2023/12/02 10:26:13;;;;;;;152.95;72.50;;;;;;;-1.23;100.00;98658.16;4994852;28;20112;-93
2023/12/02 10:29:00;;;;;;;123.60;63.40;;;;;;;-1.65;100.00;98593.22;4917297;29;20482;-93
2023/12/02 10:32:22;;;;;;;118.28;63.63;;;;;;;-1.14;100.00;98672.50;4917175;29;20036;-92
2023/12/02 10:35:37;;;;;;;118.43;63.72;;;;;;;-1.11;100.00;98652.03;4901568;29;20055;-93
2023/12/02 10:38:28;;;;;;;115.82;58.47;;;;;;;-0.88;100.00;98667.00;4917108;29;20153;-93
2023/12/02 10:41:20;;;;;;;119.57;61.35;;;;;;;-0.79;100.00;98661.75;4917154;29;20440;-93
2023/12/02 10:44:07;;;;;;;115.70;60.15;;;;;;;-0.84;100.00;98661.81;4917210;29;20434;-93
2023/12/02 10:46:34;;;;;;;112.65;57.45;;;;;;;-0.73;100.00;98684.63;4879331;29;20426;-92
2023/12/02 10:49:02;;;;;;;113.03;61.97;;;;;;;-0.86;100.00;98660.97;4851902;29;20104;-93
2023/12/02 10:52:08;;;;;;;115.50;61.90;;;;;;;-0.69;100.00;98670.94;4850388;29;20384;-92
2023/12/02 10:55:14;;;;;;;107.93;57.25;;;;;;;-0.61;100.00;98683.59;4860740;29;20054;-93
2023/12/02 10:59:00;;;;;;;109.13;55.58;;;;;;;-0.39;100.00;98718.16;4860901;29;20108;-93
2023/12/02 11:02:41;;;;;;;113.28;57.65;;;;;;;-0.30;100.00;98714.59;4823817;29;20074;-92
2023/12/02 11:06:29;;;;;;;117.25;60.00;;;;;;;-0.29;100.00;98693.25;4768112;30;20123;-94
2023/12/02 11:10:10;;;;;;;120.15;63.47;;;;;;;-0.28;100.00;98689.81;4777067;30;20036;-93
2023/12/02 11:13:38;;;;;;;104.50;56.92;;;;;;;-0.22;100.00;98701.66;4787963;30;20039;-93
2023/12/02 11:17:28;;;;;;;110.75;62.53;;;;;;;-0.18;100.00;98681.09;4799409;29;20082;-95
2023/12/02 12:07:06;;;;;;;131.68;69.82;;;;;;;-0.25;100.00;98659.06;5037785;28;20076;-91